createdAt,value
2023-03-19T00:01:04.331Z,82.67
2023-03-19T00:03:33.280Z,82.65
2023-03-19T00:06:01.362Z,83.26
2023-03-19T00:08:29.203Z,83.24
2023-03-19T00:10:57.500Z,82.89
2023-03-19T00:13:25.522Z,82.54
2023-03-19T00:15:53.446Z,83.18
2023-03-19T00:18:21.871Z,83.04
2023-03-19T00:20:49.763Z,82.26
2023-03-19T00:23:18.037Z,82.48
2023-03-19T00:25:46.164Z,82.99
2023-03-19T00:28:14.025Z,83.63
2023-03-19T00:30:42.138Z,83.79
2023-03-19T00:33:10.915Z,84.53
2023-03-19T00:35:40.506Z,84.37
2023-03-19T00:38:09.051Z,83.87
2023-03-19T00:40:37.368Z,84.56
2023-03-19T00:43:06.472Z,84.09
2023-03-19T00:45:34.704Z,84.04
2023-03-19T00:48:03.914Z,84.67
2023-03-19T00:50:31.824Z,84.62
2023-03-19T00:53:01.638Z,85.00
2023-03-19T00:55:29.810Z,84.91
2023-03-19T00:57:58.075Z,84.61
2023-03-19T01:00:26.073Z,84.75
2023-03-19T01:02:54.431Z,84.88
2023-03-19T01:05:22.459Z,84.39
2023-03-19T01:07:51.393Z,84.69
2023-03-19T01:10:21.765Z,84.83
2023-03-19T01:12:51.142Z,84.32
2023-03-19T01:15:19.649Z,83.75
2023-03-19T01:17:47.678Z,84.12
2023-03-19T01:20:18.827Z,84.15
2023-03-19T01:22:46.995Z,83.83
2023-03-19T01:25:14.990Z,83.95
2023-03-19T01:27:43.896Z,83.50
2023-03-19T01:30:13.040Z,83.87
2023-03-19T01:32:50.434Z,84.06
2023-03-19T01:35:19.391Z,83.94
2023-03-19T01:37:47.307Z,83.71
2023-03-19T01:40:15.715Z,84.07
2023-03-19T01:43:18.637Z,84.48
2023-03-19T01:45:50.030Z,84.32
2023-03-19T01:48:39.720Z,84.83
2023-03-19T01:51:10.759Z,84.46
2023-03-19T01:53:41.841Z,84.67
2023-03-19T01:56:17.905Z,84.40
2023-03-19T01:58:51.342Z,85.23
2023-03-19T02:01:20.859Z,85.00
2023-03-19T02:03:51.986Z,84.81
2023-03-19T02:06:21.710Z,85.59
2023-03-19T02:08:51.803Z,86.02
2023-03-19T02:11:21.105Z,86.04
2023-03-19T02:13:49.385Z,85.91
2023-03-19T02:16:18.300Z,86.48
2023-03-19T02:18:47.974Z,86.30
2023-03-19T02:21:20.241Z,85.65
2023-03-19T02:23:54.523Z,86.24
2023-03-19T02:26:25.470Z,86.04
2023-03-19T02:28:59.731Z,86.22
2023-03-19T02:31:28.346Z,86.27
2023-03-19T02:34:14.250Z,86.37
2023-03-19T02:36:47.353Z,86.97
2023-03-19T02:39:25.598Z,87.37
2023-03-19T02:41:57.283Z,87.57
2023-03-19T02:44:26.492Z,86.70
2023-03-19T02:46:54.970Z,86.37
2023-03-19T02:49:23.287Z,86.45
2023-03-19T02:51:51.918Z,87.26
2023-03-19T02:54:21.124Z,87.65
2023-03-19T02:56:49.337Z,88.03
2023-03-19T02:59:17.181Z,87.73
2023-03-19T03:01:45.961Z,88.11
2023-03-19T03:04:16.646Z,88.29
2023-03-19T03:06:45.792Z,87.89
2023-03-19T03:09:14.470Z,88.53
2023-03-19T03:11:43.133Z,88.90
2023-03-19T03:14:12.135Z,89.01
2023-03-19T03:16:41.752Z,88.30
2023-03-19T03:19:09.762Z,87.81
2023-03-19T03:21:38.466Z,87.84
2023-03-19T03:24:07.023Z,87.87
2023-03-19T03:26:36.151Z,86.94
2023-03-19T03:29:05.091Z,87.04
2023-03-19T03:31:34.876Z,87.85
2023-03-19T03:34:02.765Z,88.46
2023-03-19T03:36:32.601Z,88.53
2023-03-19T03:39:00.980Z,88.38
2023-03-19T03:41:28.913Z,89.21
2023-03-19T03:43:57.793Z,89.30
2023-03-19T03:46:26.160Z,89.46
2023-03-19T03:48:54.001Z,90.10
2023-03-19T03:51:22.321Z,90.03
2023-03-19T03:53:50.980Z,90.53
2023-03-19T03:56:18.908Z,90.37
2023-03-19T03:58:47.797Z,90.21
2023-03-19T04:01:17.275Z,90.68
2023-03-19T04:03:46.688Z,90.01
2023-03-19T04:06:17.691Z,90.79
2023-03-19T04:08:46.696Z,91.10
2023-03-19T04:11:15.278Z,91.05
2023-03-19T04:13:43.360Z,91.61
2023-03-19T04:16:11.814Z,91.41
2023-03-19T04:18:39.915Z,91.13
2023-03-19T04:21:11.619Z,91.25
2023-03-19T04:23:39.886Z,91.45
2023-03-19T04:26:08.196Z,91.57
2023-03-19T04:28:36.476Z,92.97
2023-03-19T04:31:07.906Z,93.20
2023-03-19T04:33:37.179Z,92.13
2023-03-19T04:36:05.730Z,92.25
2023-03-19T04:38:34.786Z,92.81
2023-03-19T04:41:02.739Z,92.25
2023-03-19T04:43:34.590Z,92.33
2023-03-19T04:46:02.979Z,92.69
2023-03-19T04:48:32.444Z,92.62
2023-03-19T04:51:00.370Z,92.95
2023-03-19T04:53:28.483Z,92.47
2023-03-19T04:55:56.743Z,92.88
2023-03-19T04:58:24.680Z,92.60
2023-03-19T05:00:53.672Z,92.81
2023-03-19T05:03:23.356Z,91.44
2023-03-19T05:05:52.970Z,91.02
2023-03-19T05:08:21.651Z,91.05
2023-03-19T05:10:49.820Z,90.97
2023-03-19T05:13:20.973Z,91.04
2023-03-19T05:15:54.291Z,91.24
2023-03-19T05:18:23.352Z,91.20
2023-03-19T05:20:52.169Z,91.57
2023-03-19T05:23:20.753Z,91.59
2023-03-19T05:25:50.812Z,91.27
2023-03-19T05:28:19.816Z,90.05
2023-03-19T05:30:47.733Z,90.12
2023-03-19T05:33:16.924Z,89.63
2023-03-19T05:35:46.045Z,89.29
2023-03-19T05:38:15.091Z,89.12
2023-03-19T05:40:43.714Z,89.24
2023-03-19T05:43:12.739Z,88.30
2023-03-19T05:45:41.074Z,87.96
2023-03-19T05:48:10.726Z,87.77
2023-03-19T05:50:40.283Z,86.90
2023-03-19T05:53:09.268Z,86.51
2023-03-19T05:55:38.034Z,85.97
2023-03-19T05:58:07.870Z,85.60
2023-03-19T06:00:36.405Z,85.28
2023-03-19T06:03:05.848Z,84.89
2023-03-19T06:05:34.969Z,83.69
2023-03-19T06:08:04.428Z,83.25
2023-03-19T06:10:37.278Z,82.61
2023-03-19T06:13:06.120Z,81.53
2023-03-19T06:15:35.436Z,81.24
2023-03-19T06:18:04.743Z,80.97
2023-03-19T06:20:33.186Z,81.08
2023-03-19T06:23:01.701Z,81.42
2023-03-19T06:25:29.642Z,80.30
2023-03-19T06:27:57.608Z,80.76
2023-03-19T06:30:26.731Z,79.92
2023-03-19T06:32:55.233Z,79.16
2023-03-19T06:35:23.400Z,79.66
2023-03-19T06:37:52.733Z,79.31
2023-03-19T06:40:20.770Z,79.04
2023-03-19T06:42:49.098Z,78.62
2023-03-19T06:45:19.040Z,78.79
2023-03-19T06:47:47.751Z,78.72
2023-03-19T06:50:16.936Z,77.63
2023-03-19T06:52:45.641Z,77.63
2023-03-19T06:55:13.992Z,77.77
2023-03-19T06:57:41.929Z,76.81
2023-03-19T07:00:11.705Z,75.50
2023-03-19T07:02:40.224Z,73.61
2023-03-19T07:05:08.576Z,71.93
2023-03-19T07:07:37.394Z,66.81
2023-03-19T07:10:06.720Z,67.53
2023-03-19T07:12:34.983Z,68.04
2023-03-19T07:15:04.966Z,67.54
2023-03-19T07:17:32.844Z,66.09
2023-03-19T07:20:00.807Z,64.88
2023-03-19T07:22:29.178Z,65.50
2023-03-19T07:24:57.515Z,64.94
2023-03-19T07:27:25.488Z,65.05
2023-03-19T07:29:55.734Z,63.64
2023-03-19T07:32:23.710Z,63.14
2023-03-19T07:34:52.117Z,63.98
2023-03-19T07:37:22.471Z,63.95
2023-03-19T07:39:50.904Z,62.25
2023-03-19T07:42:18.941Z,62.39
2023-03-19T07:44:47.161Z,62.29
2023-03-19T07:47:26.396Z,62.65
2023-03-19T07:49:57.902Z,62.39
2023-03-19T07:52:26.296Z,61.37
2023-03-19T07:54:54.470Z,61.90
2023-03-19T07:57:22.816Z,60.25
2023-03-19T07:59:50.796Z,60.43
2023-03-19T08:02:22.293Z,59.76
2023-03-19T08:04:51.493Z,59.59
2023-03-19T08:07:20.307Z,60.02
2023-03-19T08:09:48.394Z,59.36
2023-03-19T08:12:16.878Z,59.49
2023-03-19T08:14:44.768Z,59.86
2023-03-19T08:17:12.741Z,59.00
2023-03-19T08:19:41.482Z,58.87
2023-03-19T08:22:10.158Z,58.50
2023-03-19T08:24:37.971Z,57.23
2023-03-19T08:27:06.885Z,56.01
2023-03-19T08:29:35.250Z,56.47
2023-03-19T08:32:03.336Z,56.43
2023-03-19T08:34:32.656Z,56.30
2023-03-19T08:37:00.773Z,50.45
2023-03-19T08:39:28.817Z,45.93
2023-03-19T08:41:57.935Z,40.29
2023-03-19T08:44:25.862Z,39.39
2023-03-19T08:46:53.802Z,37.67
2023-03-19T08:49:22.282Z,37.45
2023-03-19T08:51:50.841Z,36.72
2023-03-19T08:54:20.132Z,38.78
2023-03-19T08:56:51.106Z,39.34
2023-03-19T08:59:19.928Z,39.88
2023-03-19T09:01:53.309Z,37.74
2023-03-19T09:04:22.356Z,39.97
2023-03-19T09:06:53.323Z,38.61
2023-03-19T09:09:24.227Z,36.94
2023-03-19T09:11:52.192Z,37.86
2023-03-19T09:14:20.777Z,39.70
2023-03-19T09:16:49.374Z,38.32
2023-03-19T09:19:17.575Z,39.11
2023-03-19T09:21:46.460Z,40.18
2023-03-19T09:24:14.803Z,37.10
2023-03-19T09:26:42.741Z,40.50
2023-03-19T09:29:11.135Z,41.44
2023-03-19T09:31:39.654Z,40.76
2023-03-19T09:34:08.953Z,38.70
2023-03-19T09:36:38.043Z,39.42
2023-03-19T09:39:08.097Z,39.43
2023-03-19T09:41:48.386Z,40.80
2023-03-19T09:44:30.617Z,42.12
2023-03-19T09:47:34.294Z,41.94
2023-03-19T09:50:06.909Z,44.18
2023-03-19T09:52:41.587Z,46.50
2023-03-19T09:55:25.080Z,47.19
2023-03-19T09:57:55.671Z,48.60
2023-03-19T10:00:32.658Z,46.99
2023-03-19T10:03:28.192Z,46.14
2023-03-19T10:06:21.348Z,46.65
2023-03-19T10:08:55.942Z,47.12
2023-03-19T10:11:32.698Z,46.92
2023-03-19T10:14:01.683Z,46.42
2023-03-19T10:16:30.862Z,46.36
2023-03-19T10:19:03.067Z,45.61
2023-03-19T10:21:34.579Z,45.67
2023-03-19T10:24:20.095Z,46.62
2023-03-19T10:26:48.663Z,45.16
2023-03-19T10:29:22.930Z,45.48
2023-03-19T10:32:09.486Z,44.72
2023-03-19T10:34:42.623Z,45.60
2023-03-19T10:37:13.723Z,45.25
2023-03-19T10:39:44.443Z,44.39
2023-03-19T10:42:37.678Z,44.90
2023-03-19T10:45:26.994Z,44.76
2023-03-19T10:47:57.434Z,44.01
2023-03-19T10:50:30.963Z,43.93
2023-03-19T10:53:25.022Z,43.71
2023-03-19T10:56:19.128Z,43.31
2023-03-19T10:59:33.548Z,43.83
2023-03-19T11:02:32.491Z,44.41
2023-03-19T11:05:23.592Z,43.53
2023-03-19T11:07:57.146Z,44.62
2023-03-19T11:10:28.339Z,44.08
2023-03-19T11:13:16.221Z,43.50
2023-03-19T11:15:48.024Z,42.56
2023-03-19T11:18:31.896Z,42.25
2023-03-19T11:21:28.152Z,41.30
2023-03-19T11:24:04.030Z,41.85
2023-03-19T11:26:32.644Z,42.15
2023-03-19T11:29:05.108Z,41.66
2023-03-19T11:32:20.381Z,42.45
2023-03-19T11:35:11.405Z,41.78
2023-03-19T11:37:57.582Z,42.05
2023-03-19T11:40:49.557Z,42.29
2023-03-19T11:43:40.768Z,42.23
2023-03-19T11:46:11.676Z,42.16
2023-03-19T11:48:48.890Z,42.13
2023-03-19T11:51:23.352Z,42.29
2023-03-19T11:54:21.712Z,42.37
2023-03-19T11:57:04.225Z,42.15
2023-03-19T11:59:42.505Z,42.49
2023-03-19T12:02:33.644Z,42.16
2023-03-19T12:05:52.872Z,42.31
2023-03-19T12:08:38.520Z,42.05
2023-03-19T12:11:25.050Z,41.79
2023-03-19T12:14:03.590Z,42.48
2023-03-19T12:17:22.755Z,42.12
2023-03-19T12:19:53.870Z,42.90
2023-03-19T12:22:56.762Z,42.66
2023-03-19T12:25:45.818Z,41.82
2023-03-19T12:28:30.148Z,41.63
2023-03-19T12:31:36.044Z,42.14
2023-03-19T12:34:25.161Z,41.07
2023-03-19T12:37:22.739Z,41.03
2023-03-19T12:40:07.763Z,41.62
2023-03-19T12:42:40.006Z,41.76
2023-03-19T12:45:30.100Z,42.21
2023-03-19T12:48:07.286Z,42.73
2023-03-19T12:50:40.049Z,42.44
2023-03-19T12:53:28.820Z,42.88
2023-03-19T12:56:02.573Z,42.25
2023-03-19T12:59:08.304Z,41.75
2023-03-19T13:01:45.713Z,40.34
2023-03-19T13:04:19.663Z,40.93
2023-03-19T13:06:53.973Z,40.36
2023-03-19T13:09:43.386Z,40.00
2023-03-19T13:12:18.628Z,40.83
2023-03-19T13:15:05.517Z,40.79
2023-03-19T13:17:55.900Z,40.17
2023-03-19T13:20:47.762Z,40.10
2023-03-19T13:23:23.608Z,41.07
2023-03-19T13:25:57.253Z,41.11
2023-03-19T13:28:37.815Z,41.30
2023-03-19T13:31:09.167Z,41.07
2023-03-19T13:33:39.080Z,40.87
2023-03-19T13:36:15.289Z,41.77
2023-03-19T13:38:52.898Z,40.64
2023-03-19T13:41:33.284Z,41.18
2023-03-19T13:44:32.468Z,41.21
2023-03-19T13:47:37.134Z,42.41
2023-03-19T13:50:12.923Z,41.69
2023-03-19T13:52:45.002Z,42.36
2023-03-19T13:55:47.412Z,41.38
2023-03-19T13:58:40.558Z,40.92
2023-03-19T14:01:28.037Z,41.04
2023-03-19T14:04:04.690Z,41.60
2023-03-19T14:06:48.518Z,41.81
2023-03-19T14:09:34.789Z,41.78
2023-03-19T14:12:09.788Z,41.13
2023-03-19T14:14:58.340Z,40.88
2023-03-19T14:17:30.927Z,40.92
2023-03-19T14:20:12.723Z,41.28
2023-03-19T14:22:56.706Z,41.33
2023-03-19T14:25:27.643Z,41.42
2023-03-19T14:27:59.639Z,40.56
2023-03-19T14:30:47.102Z,41.19
2023-03-19T14:33:52.359Z,40.19
2023-03-19T14:36:24.008Z,41.01
2023-03-19T14:38:57.102Z,39.65
2023-03-19T14:41:29.066Z,39.71
2023-03-19T14:44:19.018Z,39.41
2023-03-19T14:47:17.547Z,40.67
2023-03-19T14:50:16.182Z,40.87
2023-03-19T14:52:52.175Z,41.32
2023-03-19T14:55:20.430Z,40.38
2023-03-19T14:57:48.883Z,40.65
2023-03-19T15:00:18.753Z,41.22
2023-03-19T15:02:51.904Z,40.19
2023-03-19T15:05:50.650Z,40.57
2023-03-19T15:08:23.662Z,41.05
2023-03-19T15:11:22.557Z,41.60
2023-03-19T15:14:09.059Z,41.61
2023-03-19T15:16:47.766Z,41.70
2023-03-19T15:19:22.767Z,41.74
2023-03-19T15:21:51.316Z,42.04
2023-03-19T15:24:19.609Z,41.82
2023-03-19T15:26:48.080Z,41.54
2023-03-19T15:29:18.776Z,40.65
2023-03-19T15:31:57.545Z,40.87
2023-03-19T15:34:32.289Z,41.48
2023-03-19T15:37:15.560Z,42.12
2023-03-19T15:39:51.829Z,42.08
2023-03-19T15:42:22.442Z,42.63
2023-03-19T15:44:55.159Z,42.96
2023-03-19T15:47:28.942Z,43.37
2023-03-19T15:50:14.297Z,43.43
2023-03-19T15:52:46.444Z,43.21
2023-03-19T15:55:16.644Z,42.82
2023-03-19T15:57:45.448Z,43.52
2023-03-19T16:00:15.211Z,43.86
2023-03-19T16:02:48.213Z,44.00
2023-03-19T16:05:27.508Z,44.48
2023-03-19T16:08:01.150Z,44.54
2023-03-19T16:10:29.299Z,44.75
2023-03-19T16:12:57.824Z,45.24
2023-03-19T16:15:43.426Z,45.39
2023-03-19T16:18:18.352Z,45.76
2023-03-19T16:21:03.697Z,46.22
2023-03-19T16:23:41.151Z,46.47
2023-03-19T16:26:12.427Z,47.02
2023-03-19T16:28:47.664Z,46.86
2023-03-19T16:31:25.522Z,47.17
2023-03-19T16:33:54.621Z,47.47
2023-03-19T16:36:23.164Z,47.60
2023-03-19T16:38:57.181Z,47.66
2023-03-19T16:41:32.479Z,47.99
2023-03-19T16:44:18.420Z,48.37
2023-03-19T16:46:47.096Z,48.89
2023-03-19T16:49:15.553Z,48.79
2023-03-19T16:51:43.856Z,48.97
2023-03-19T16:54:13.249Z,48.99
2023-03-19T16:56:41.352Z,49.40
2023-03-19T16:59:29.272Z,49.55
2023-03-19T17:01:58.242Z,50.39
2023-03-19T17:04:26.828Z,50.62
2023-03-19T17:06:55.074Z,50.85
2023-03-19T17:09:23.675Z,51.00
2023-03-19T17:11:53.494Z,51.11
2023-03-19T17:14:22.714Z,50.84
2023-03-19T17:16:51.780Z,51.56
2023-03-19T17:19:26.320Z,51.77
2023-03-19T17:21:57.633Z,51.99
2023-03-19T17:24:32.357Z,52.32
2023-03-19T17:27:04.993Z,52.32
2023-03-19T17:29:33.912Z,52.35
2023-03-19T17:32:04.585Z,52.43
2023-03-19T17:34:33.273Z,53.04
2023-03-19T17:37:06.745Z,52.56
2023-03-19T17:39:35.447Z,52.82
2023-03-19T17:42:16.503Z,52.85
2023-03-19T17:44:45.003Z,52.66
2023-03-19T17:47:13.430Z,51.92
2023-03-19T17:49:43.332Z,52.12
2023-03-19T17:52:19.136Z,51.89
2023-03-19T17:54:47.393Z,52.20
2023-03-19T17:57:16.384Z,51.90
2023-03-19T17:59:45.123Z,52.01
2023-03-19T18:02:32.411Z,51.98
2023-03-19T18:05:00.870Z,51.97
2023-03-19T18:07:29.090Z,51.89
2023-03-19T18:09:57.397Z,51.13
2023-03-19T18:12:25.928Z,50.97
2023-03-19T18:14:53.867Z,50.99
2023-03-19T18:17:22.249Z,50.29
2023-03-19T18:19:52.393Z,50.38
2023-03-19T18:22:21.673Z,49.95
2023-03-19T18:24:49.907Z,50.28
2023-03-19T18:27:18.573Z,50.11
2023-03-19T18:29:46.875Z,50.41
2023-03-19T18:32:25.370Z,50.27
2023-03-19T18:34:53.977Z,50.41
2023-03-19T18:37:23.382Z,50.52
2023-03-19T18:39:51.798Z,50.84
2023-03-19T18:42:20.409Z,51.07
2023-03-19T18:44:49.385Z,51.28
2023-03-19T18:47:17.929Z,51.39
2023-03-19T18:49:46.526Z,51.86
2023-03-19T18:52:19.130Z,51.75
2023-03-19T18:54:48.340Z,52.03
2023-03-19T18:57:17.152Z,52.42
2023-03-19T18:59:45.983Z,53.17
2023-03-19T19:02:27.036Z,53.09
2023-03-19T19:04:55.376Z,54.38
2023-03-19T19:07:24.205Z,55.37
2023-03-19T19:09:52.862Z,54.81
2023-03-19T19:12:21.433Z,56.12
2023-03-19T19:14:50.196Z,55.55
2023-03-19T19:17:21.444Z,56.11
2023-03-19T19:19:49.971Z,55.97
2023-03-19T19:22:19.084Z,56.60
2023-03-19T19:24:47.553Z,58.13
2023-03-19T19:27:19.804Z,56.84
2023-03-19T19:29:49.513Z,57.08
2023-03-19T19:32:26.760Z,57.62
2023-03-19T19:34:55.609Z,58.31
2023-03-19T19:37:24.436Z,57.34
2023-03-19T19:39:52.967Z,57.18
2023-03-19T19:42:22.889Z,56.99
2023-03-19T19:44:55.733Z,57.74
2023-03-19T19:47:23.937Z,57.80
2023-03-19T19:49:52.474Z,58.82
2023-03-19T19:52:21.298Z,57.98
2023-03-19T19:54:51.932Z,59.12
2023-03-19T19:57:24.810Z,59.22
2023-03-19T19:59:55.687Z,58.19
2023-03-19T20:02:28.934Z,58.44
2023-03-19T20:04:59.105Z,58.26
2023-03-19T20:07:27.482Z,58.44
2023-03-19T20:09:55.786Z,58.39
2023-03-19T20:12:29.736Z,58.72
2023-03-19T20:15:02.151Z,58.41
2023-03-19T20:17:30.878Z,59.19
2023-03-19T20:19:59.154Z,58.73
2023-03-19T20:22:27.537Z,59.08
2023-03-19T20:24:56.084Z,59.09
2023-03-19T20:27:31.673Z,58.94
2023-03-19T20:30:00.414Z,58.95
2023-03-19T20:32:34.657Z,59.13
2023-03-19T20:35:04.952Z,60.38
2023-03-19T20:37:33.160Z,60.23
2023-03-19T20:40:01.476Z,59.87
2023-03-19T20:42:32.309Z,59.64
2023-03-19T20:45:01.550Z,59.51
2023-03-19T20:47:33.256Z,59.53
2023-03-19T20:50:02.102Z,59.94
2023-03-19T20:52:30.710Z,60.93
2023-03-19T20:54:59.040Z,59.97
2023-03-19T20:57:30.904Z,60.85
2023-03-19T21:00:02.555Z,59.44
2023-03-19T21:02:31.480Z,59.74
2023-03-19T21:05:07.635Z,59.42
2023-03-19T21:07:36.030Z,59.02
2023-03-19T21:10:15.657Z,59.37
2023-03-19T21:12:43.837Z,59.89
2023-03-19T21:15:16.245Z,60.92
2023-03-19T21:17:44.582Z,60.33
2023-03-19T21:20:22.871Z,60.33
2023-03-19T21:22:59.064Z,60.52
2023-03-19T21:25:29.929Z,60.12
2023-03-19T21:28:04.348Z,61.16
2023-03-19T21:30:40.672Z,61.10
2023-03-19T21:33:35.592Z,62.17
2023-03-19T21:36:04.408Z,62.43
2023-03-19T21:38:33.190Z,62.07
2023-03-19T21:41:05.511Z,62.22
2023-03-19T21:43:44.647Z,62.51
2023-03-19T21:46:24.192Z,62.33
2023-03-19T21:48:54.979Z,62.35
2023-03-19T21:51:25.259Z,62.14
2023-03-19T21:53:53.835Z,63.49
2023-03-19T21:56:24.353Z,62.91
2023-03-19T21:58:53.364Z,63.13
2023-03-19T22:01:24.733Z,63.09
2023-03-19T22:03:54.632Z,64.31
2023-03-19T22:06:23.059Z,63.67
2023-03-19T22:08:54.122Z,64.36
2023-03-19T22:11:37.658Z,63.97
2023-03-19T22:14:19.385Z,63.19
2023-03-19T22:16:54.348Z,63.11
2023-03-19T22:19:22.448Z,62.62
2023-03-19T22:21:50.656Z,62.67
2023-03-19T22:24:18.495Z,62.62
2023-03-19T22:26:49.714Z,63.38
2023-03-19T22:29:21.297Z,62.81
2023-03-19T22:31:52.260Z,64.24
2023-03-19T22:34:23.343Z,63.28
2023-03-19T22:36:51.523Z,65.02
2023-03-19T22:39:19.490Z,65.21
2023-03-19T22:41:49.019Z,64.35
2023-03-19T22:44:26.698Z,64.08
2023-03-19T22:46:57.770Z,64.62
2023-03-19T22:49:26.613Z,64.77
2023-03-19T22:51:55.801Z,62.99
2023-03-19T22:54:24.289Z,63.42
2023-03-19T22:56:52.158Z,63.54
2023-03-19T22:59:20.598Z,64.12
2023-03-19T23:01:48.893Z,63.55
2023-03-19T23:04:42.819Z,63.23
2023-03-19T23:07:12.635Z,63.37
2023-03-19T23:09:40.638Z,63.23
2023-03-19T23:14:36.932Z,62.71
2023-03-19T23:17:15.600Z,62.66
2023-03-19T23:19:43.859Z,63.18
2023-03-19T23:22:16.504Z,63.24
2023-03-19T23:24:45.266Z,63.67
2023-03-19T23:27:26.311Z,64.18
2023-03-19T23:29:55.003Z,65.24
2023-03-19T23:32:22.896Z,66.11
2023-03-19T23:34:59.482Z,66.76
2023-03-19T23:37:29.366Z,67.75
2023-03-19T23:39:58.015Z,68.80
2023-03-19T23:42:29.695Z,68.63
2023-03-19T23:45:01.513Z,69.14
2023-03-19T23:47:30.773Z,69.33
2023-03-19T23:49:59.455Z,69.36
2023-03-19T23:52:27.361Z,69.27
2023-03-19T23:54:57.099Z,69.44
2023-03-19T23:57:26.687Z,69.34
2023-03-19T23:59:54.882Z,70.58
